Wednesday, October 01, 2014
22:24 UTC
  |  Log In   |  Register Free
Airport Search:

New Richmond Regional Airport
(KRNH)

New Richmond Regional Airport Diagram
No Airport Diagram Available

FAA data valid effective September 18, 2014 - November 13, 2014 (unless otherwise noted).

 
 
 
 
 
 
 
 
 
 
 
 
 
 

Current Aviation Weather for New Richmond Regional Airport (KRNH)

The most recent METAR observation for KRNH was updated at: 2214
METAR Summary (Translated METAR)
KRNH
012155Z AUTO 16005KT 5SM BR OVC006 12/12 A2979 RMK AO2 T01230119
KOEO
012155Z AUTO 14006KT 10SM OVC007 12/12 A2980 RMK AO2 T01230123
(11.6 nm NW from KRNH)
KSTP
012153Z 16008KT 7SM OVC007 13/12 A2979 RMK AO2 SLP087 T01330122
(25.5 nm SW from KRNH)
TAF Summary (Translated TAF)
KRNH
012147Z 0122/0218 15004KT 5SM BR OVC006 FM020300 00000KT 3SM BR OVC006 FM020700 00000KT 1SM BR OVC003 FM020900 00000KT 1/2SM FG VV002 FM021500 33003KT 5SM BR BKN015
  Airport Weather Conditions for KRNH

 Current Weather at RNH
54° F
Fog/Mist
Southeast winds at 5.8 mph
RNH NOAA Radar

Pressure: 29.79 in
Humidity: 97%
Wind: Southeast at 5.8 MPH (5 KT)
Dew Point: 52.9°F
Visibility: 5.00 mi


Airport Weather Forecast for KRNH

Translated METAR and TAF for KRNH
Translated METAR for KRNH (2219 UTC 01 October 2014)
found at http://aviationweather.gov/adds/metars/
 
METAR text: KRNH 012155Z AUTO 16005KT 5SM BR OVC006 12/12 A2979 RMK AO2 T01230119
Conditions at: KRNH (NEW RICHMOND MUN, WI, US) observed 2155 UTC 01 October 2014
Temperature: 12.3°C (54°F)
Dewpoint: 11.9°C (53°F) [RH = 97%]
Pressure (altimeter): 29.79 inches Hg (1008.9 mb)
Winds: from the SSE (160 degrees) at 6 MPH (5 knots; 2.6 m/s)
Visibility: 5 miles (8 km)
Ceiling: 600 feet AGL
Clouds: overcast cloud deck at 600 feet AGL
Weather: BR  (mist)
Translated TAF for KRNH
Forecast for: KRNH (NEW RICHMOND MUN, WI, US)
TAF Text: KRNH 012147Z 0122/0218 15004KT 5SM BR OVC006
Forecast period: 2200 UTC 01 October 2014 to 0300 UTC 02 October 2014
Forecast type: FROM: standard forecast or significant change
Winds: from the SSE (150 degrees) at 5 MPH (4 knots; 2.1 m/s)
Visibility: 5 miles (8 km)
Ceiling: 600 feet AGL
Clouds: overcast cloud deck at 600 feet AGL
Weather: BR  (mist)
TAF Text: FM020300 00000KT 3SM BR OVC006
Forecast period: 0300 to 0700 UTC 02 October 2014
Forecast type: FROM: standard forecast or significant change
Winds: calm
Visibility: 3 miles (5 km)
Ceiling: 600 feet AGL
Clouds: overcast cloud deck at 600 feet AGL
Weather: BR  (mist)
TAF Text: FM020700 00000KT 1SM BR OVC003
Forecast period: 0700 to 0900 UTC 02 October 2014
Forecast type: FROM: standard forecast or significant change
Winds: calm
Visibility: 1.00 miles (1.61 km)
Ceiling: 300 feet AGL
Clouds: overcast cloud deck at 300 feet AGL
Weather: BR  (mist)
TAF Text: FM020900 00000KT 1/2SM FG VV002
Forecast period: 0900 to 1500 UTC 02 October 2014
Forecast type: FROM: standard forecast or significant change
Winds: calm
Visibility: 0.50 miles (0.80 km)
Ceiling: indefinite ceiling with vertical visibility of 200 feet AGL
Clouds: obscured sky
Weather: FG  (fog)
TAF Text: FM021500 33003KT 5SM BR BKN015
Forecast period: 1500 to 1800 UTC 02 October 2014
Forecast type: FROM: standard forecast or significant change
Winds: from the NNW (330 degrees) at 3 MPH (3 knots; 1.6 m/s)
Visibility: 5 miles (8 km)
Ceiling: 1500 feet AGL
Clouds: broken clouds at 1500 feet AGL
Weather: BR  (mist)

Find All Airport Services Find A Hotel Find A Rental Car Find A Golf Course Find A Restaurant $100 Hamburger



FBO's on the Field
FBO Company Facility Photos Services Transportation Aviation Fuel Prices: Prices include tax
Catering Weather Repair Courtesy Rental Type 100LL JetA JetA+ MOGAS 8087
 
Griggs Aviation

This FBO has not yet been rated
FS:Independent
Last Updated: Sep-17
Login to update fuel prices
SS:
Contact Griggs AviationMore FBO Information
 
Add another FBO Facility Photos Catering Weather Repair Courtesy Rental Type 100LL JetA JetA+ MOGAS 8087
Services Transportation Aviation Fuel Prices: Prices include tax


model-print
model-print
model-print
model-print